sensor_id;sensor_type;location;lat;lon;timestamp;pressure;altitude;pressure_sealevel;temperature;humidity
50226;BME280;36113;50.742;6.432;2023-01-29T00:00:04;143982.28;;;-4.27;100.00
50226;BME280;36113;50.742;6.432;2023-01-29T00:02:34;143982.28;;;-4.27;100.00
50226;BME280;36113;50.742;6.432;2023-01-29T00:04:59;143987.25;;;-4.25;100.00
50226;BME280;36113;50.742;6.432;2023-01-29T00:07:25;143981.06;;;-4.28;100.00
50226;BME280;36113;50.742;6.432;2023-01-29T00:09:51;143971.13;;;-4.32;100.00
50226;BME280;36113;50.742;6.432;2023-01-29T00:12:16;143909.25;;;-4.58;100.00
50226;BME280;36113;50.742;6.432;2023-01-29T00:14:42;143961.25;;;-4.36;100.00
50226;BME280;36113;50.742;6.432;2023-01-29T00:17:07;143953.81;;;-4.39;100.00
50226;BME280;36113;50.742;6.432;2023-01-29T00:19:32;143885.78;;;-4.67;100.00
50226;BME280;36113;50.742;6.432;2023-01-29T00:21:58;143931.56;;;-4.48;100.00
50226;BME280;36113;50.742;6.432;2023-01-29T00:24:23;143862.28;;;-4.77;100.00
50226;BME280;36113;50.742;6.432;2023-01-29T00:26:49;143941.44;;;-4.44;100.00
50226;BME280;36113;50.742;6.432;2023-01-29T00:29:14;143956.31;;;-4.38;100.00
50226;BME280;36113;50.742;6.432;2023-01-29T00:31:43;143895.66;;;-4.63;100.00
50226;BME280;36113;50.742;6.432;2023-01-29T00:34:08;143935.28;;;-4.47;100.00
50226;BME280;36113;50.742;6.432;2023-01-29T00:36:34;143926.59;;;-4.50;100.00
50226;BME280;36113;50.742;6.432;2023-01-29T00:38:59;143893.19;;;-4.64;100.00
50226;BME280;36113;50.742;6.432;2023-01-29T00:41:31;143873.41;;;-4.73;100.00
50226;BME280;36113;50.742;6.432;2023-01-29T00:44:15;143904.34;;;-4.60;100.00
50226;BME280;36113;50.742;6.432;2023-01-29T00:47:00;143911.75;;;-4.57;100.00
50226;BME280;36113;50.742;6.432;2023-01-29T00:49:26;143887.00;;;-4.67;100.00
50226;BME280;36113;50.742;6.432;2023-01-29T00:51:51;143856.06;;;-4.80;100.00
50226;BME280;36113;50.742;6.432;2023-01-29T00:54:36;143847.41;;;-4.83;100.00
50226;BME280;36113;50.742;6.432;2023-01-29T00:57:02;143844.97;;;-4.84;100.00
50226;BME280;36113;50.742;6.432;2023-01-29T00:59:28;143826.38;;;-4.92;100.00
50226;BME280;36113;50.742;6.432;2023-01-29T01:01:54;143883.31;;;-4.68;100.00
50226;BME280;36113;50.742;6.432;2023-01-29T01:04:37;143867.22;;;-4.75;100.00
50226;BME280;36113;50.742;6.432;2023-01-29T01:07:03;143880.81;;;-4.69;100.00
50226;BME280;36113;50.742;6.432;2023-01-29T01:09:28;143882.06;;;-4.69;100.00
50226;BME280;36113;50.742;6.432;2023-01-29T01:12:12;143858.56;;;-4.79;100.00
50226;BME280;36113;50.742;6.432;2023-01-29T01:14:37;143830.09;;;-4.91;100.00
50226;BME280;36113;50.742;6.432;2023-01-29T01:17:07;143854.84;;;-4.80;100.00
50226;BME280;36113;50.742;6.432;2023-01-29T01:19:32;143843.69;;;-4.85;100.00
50226;BME280;36113;50.742;6.432;2023-01-29T01:21:58;143784.34;;;-5.10;100.00
50226;BME280;36113;50.742;6.432;2023-01-29T01:24:23;143812.78;;;-4.98;100.00
50226;BME280;36113;50.742;6.432;2023-01-29T01:26:48;143771.97;;;-5.15;100.00
50226;BME280;36113;50.742;6.432;2023-01-29T01:29:13;143806.59;;;-5.00;100.00
50226;BME280;36113;50.742;6.432;2023-01-29T01:31:39;143781.84;;;-5.11;100.00
50226;BME280;36113;50.742;6.432;2023-01-29T01:34:04;143748.47;;;-5.24;100.00
50226;BME280;36113;50.742;6.432;2023-01-29T01:36:30;143779.41;;;-5.12;100.00
50226;BME280;36113;50.742;6.432;2023-01-29T01:38:56;143789.28;;;-5.07;100.00
50226;BME280;36113;50.742;6.432;2023-01-29T01:41:22;143784.34;;;-5.10;100.00
50226;BME280;36113;50.742;6.432;2023-01-29T01:43:56;143765.81;;;-5.17;100.00
50226;BME280;36113;50.742;6.432;2023-01-29T01:46:24;143807.84;;;-5.00;100.00
50226;BME280;36113;50.742;6.432;2023-01-29T01:48:56;143795.47;;;-5.05;100.00
50226;BME280;36113;50.742;6.432;2023-01-29T01:51:25;143789.28;;;-5.07;100.00
50226;BME280;36113;50.742;6.432;2023-01-29T01:54:07;143781.84;;;-5.11;100.00
50226;BME280;36113;50.742;6.432;2023-01-29T01:56:40;143738.59;;;-5.29;100.00
50226;BME280;36113;50.742;6.432;2023-01-29T01:59:12;143780.63;;;-5.11;100.00
50226;BME280;36113;50.742;6.432;2023-01-29T02:01:40;143779.41;;;-5.12;100.00
50226;BME280;36113;50.742;6.432;2023-01-29T02:04:15;143775.69;;;-5.13;100.00
50226;BME280;36113;50.742;6.432;2023-01-29T02:07:02;143774.47;;;-5.14;100.00
50226;BME280;36113;50.742;6.432;2023-01-29T02:09:51;143770.75;;;-5.15;100.00
50226;BME280;36113;50.742;6.432;2023-01-29T02:12:17;143760.81;;;-5.19;100.00
50226;BME280;36113;50.742;6.432;2023-01-29T02:14:43;143796.69;;;-5.04;100.00
50226;BME280;36113;50.742;6.432;2023-01-29T02:17:12;143790.53;;;-5.07;100.00
50226;BME280;36113;50.742;6.432;2023-01-29T02:22:33;143736.09;;;-5.30;100.00
50226;BME280;36113;50.742;6.432;2023-01-29T02:30:33;143779.41;;;-5.12;100.00
50226;BME280;36113;50.742;6.432;2023-01-29T02:40:56;143744.78;;;-5.26;100.00
50226;BME280;36113;50.742;6.432;2023-01-29T02:43:45;143744.78;;;-5.26;100.00
50226;BME280;36113;50.742;6.432;2023-01-29T02:51:35;143723.72;;;-5.35;100.00
50226;BME280;36113;50.742;6.432;2023-01-29T02:54:11;143711.38;;;-5.40;100.00
50226;BME280;36113;50.742;6.432;2023-01-29T02:56:47;143697.78;;;-5.46;100.00
50226;BME280;36113;50.742;6.432;2023-01-29T02:59:24;143717.56;;;-5.37;100.00
50226;BME280;36113;50.742;6.432;2023-01-29T03:01:57;143732.44;;;-5.31;100.00
50226;BME280;36113;50.742;6.432;2023-01-29T03:04:30;143726.22;;;-5.34;100.00
50226;BME280;36113;50.742;6.432;2023-01-29T03:07:00;143673.06;;;-5.56;100.00
50226;BME280;36113;50.742;6.432;2023-01-29T03:09:32;143713.84;;;-5.39;100.00
50226;BME280;36113;50.742;6.432;2023-01-29T03:12:08;143717.56;;;-5.37;100.00
50226;BME280;36113;50.742;6.432;2023-01-29T03:14:45;143684.19;;;-5.51;100.00
50226;BME280;36113;50.742;6.432;2023-01-29T03:17:40;143750.94;;;-5.23;100.00
50226;BME280;36113;50.742;6.432;2023-01-29T03:20:11;143779.41;;;-5.12;100.00
50226;BME280;36113;50.742;6.432;2023-01-29T03:22:40;143785.56;;;-5.09;100.00
50226;BME280;36113;50.742;6.432;2023-01-29T03:25:09;143795.47;;;-5.05;100.00
50226;BME280;36113;50.742;6.432;2023-01-29T03:27:58;143794.22;;;-5.05;100.00
50226;BME280;36113;50.742;6.432;2023-01-29T03:30:56;143840.03;;;-4.86;100.00
50226;BME280;36113;50.742;6.432;2023-01-29T03:33:58;143880.81;;;-4.69;100.00
50226;BME280;36113;50.742;6.432;2023-01-29T03:36:40;143890.72;;;-4.65;100.00
50226;BME280;36113;50.742;6.432;2023-01-29T03:39:11;143906.81;;;-4.59;100.00
50226;BME280;36113;50.742;6.432;2023-01-29T03:41:45;143925.34;;;-4.51;100.00
50226;BME280;36113;50.742;6.432;2023-01-29T03:44:27;143936.50;;;-4.46;100.00
50226;BME280;36113;50.742;6.432;2023-01-29T03:46:58;143938.97;;;-4.45;100.00
50226;BME280;36113;50.742;6.432;2023-01-29T03:52:17;143914.22;;;-4.56;100.00
50226;BME280;36113;50.742;6.432;2023-01-29T03:54:55;143917.94;;;-4.54;100.00
50226;BME280;36113;50.742;6.432;2023-01-29T03:57:34;143942.66;;;-4.44;100.00
50226;BME280;36113;50.742;6.432;2023-01-29T04:00:02;143964.97;;;-4.35;100.00
50226;BME280;36113;50.742;6.432;2023-01-29T04:02:46;143963.72;;;-4.35;100.00
50226;BME280;36113;50.742;6.432;2023-01-29T04:05:17;143968.69;;;-4.33;100.00
50226;BME280;36113;50.742;6.432;2023-01-29T04:07:44;143957.53;;;-4.38;100.00
50226;BME280;36113;50.742;6.432;2023-01-29T04:10:15;143955.06;;;-4.39;100.00
50226;BME280;36113;50.742;6.432;2023-01-29T04:12:53;143947.66;;;-4.42;100.00
50226;BME280;36113;50.742;6.432;2023-01-29T04:15:21;143936.50;;;-4.46;100.00
50226;BME280;36113;50.742;6.432;2023-01-29T04:17:52;143917.94;;;-4.54;100.00
50226;BME280;36113;50.742;6.432;2023-01-29T04:20:19;143930.31;;;-4.49;100.00
50226;BME280;36113;50.742;6.432;2023-01-29T04:22:47;143938.97;;;-4.45;100.00
50226;BME280;36113;50.742;6.432;2023-01-29T04:25:21;143955.06;;;-4.39;100.00
50226;BME280;36113;50.742;6.432;2023-01-29T04:30:31;143895.66;;;-4.63;100.00
50226;BME280;36113;50.742;6.432;2023-01-29T04:33:02;143858.56;;;-4.79;100.00
50226;BME280;36113;50.742;6.432;2023-01-29T04:36:17;143837.53;;;-4.87;100.00
50226;BME280;36113;50.742;6.432;2023-01-29T04:38:46;143821.44;;;-4.94;100.00
50226;BME280;36113;50.742;6.432;2023-01-29T04:44:17;143796.69;;;-5.04;100.00
50226;BME280;36113;50.742;6.432;2023-01-29T04:47:03;143768.25;;;-5.16;100.00
50226;BME280;36113;50.742;6.432;2023-01-29T04:52:33;143788.06;;;-5.08;100.00
50226;BME280;36113;50.742;6.432;2023-01-29T05:00:16;143810.28;;;-4.99;100.00
50226;BME280;36113;50.742;6.432;2023-01-29T05:02:43;143810.28;;;-4.99;100.00
50226;BME280;36113;50.742;6.432;2023-01-29T05:05:10;143765.81;;;-5.17;100.00
50226;BME280;36113;50.742;6.432;2023-01-29T05:07:38;143804.13;;;-5.01;100.00
50226;BME280;36113;50.742;6.432;2023-01-29T05:10:07;143805.34;;;-5.01;100.00
50226;BME280;36113;50.742;6.432;2023-01-29T05:12:35;143802.91;;;-5.02;100.00
50226;BME280;36113;50.742;6.432;2023-01-29T05:15:02;143783.13;;;-5.10;100.00
50226;BME280;36113;50.742;6.432;2023-01-29T05:17:29;143728.72;;;-5.33;100.00
50226;BME280;36113;50.742;6.432;2023-01-29T05:19:55;143720.06;;;-5.36;100.00
50226;BME280;36113;50.742;6.432;2023-01-29T05:22:21;143749.72;;;-5.24;100.00
50226;BME280;36113;50.742;6.432;2023-01-29T05:24:50;143744.78;;;-5.26;100.00
50226;BME280;36113;50.742;6.432;2023-01-29T05:27:21;143691.63;;;-5.48;100.00
50226;BME280;36113;50.742;6.432;2023-01-29T05:30:08;143713.84;;;-5.39;100.00
50226;BME280;36113;50.742;6.432;2023-01-29T05:32:34;143720.06;;;-5.36;100.00
50226;BME280;36113;50.742;6.432;2023-01-29T05:34:59;143739.81;;;-5.28;100.00
50226;BME280;36113;50.742;6.432;2023-01-29T05:37:25;143746.00;;;-5.25;100.00
50226;BME280;36113;50.742;6.432;2023-01-29T05:39:50;143747.25;;;-5.25;100.00
50226;BME280;36113;50.742;6.432;2023-01-29T05:42:15;143705.19;;;-5.42;100.00
50226;BME280;36113;50.742;6.432;2023-01-29T05:44:41;143720.06;;;-5.36;100.00
50226;BME280;36113;50.742;6.432;2023-01-29T05:47:06;143734.88;;;-5.30;100.00
50226;BME280;36113;50.742;6.432;2023-01-29T05:49:32;143728.72;;;-5.33;100.00
50226;BME280;36113;50.742;6.432;2023-01-29T05:51:57;143727.44;;;-5.33;100.00
50226;BME280;36113;50.742;6.432;2023-01-29T05:54:23;143738.59;;;-5.29;100.00
50226;BME280;36113;50.742;6.432;2023-01-29T05:56:48;143722.50;;;-5.35;100.00
50226;BME280;36113;50.742;6.432;2023-01-29T05:59:14;143755.88;;;-5.21;100.00
50226;BME280;36113;50.742;6.432;2023-01-29T06:01:40;143762.09;;;-5.19;100.00
50226;BME280;36113;50.742;6.432;2023-01-29T06:04:05;143784.34;;;-5.10;100.00
50226;BME280;36113;50.742;6.432;2023-01-29T06:06:31;143811.56;;;-4.98;100.00
50226;BME280;36113;50.742;6.432;2023-01-29T06:08:56;143807.84;;;-5.00;100.00
50226;BME280;36113;50.742;6.432;2023-01-29T06:11:21;143822.66;;;-4.94;100.00
50226;BME280;36113;50.742;6.432;2023-01-29T06:13:47;143826.38;;;-4.92;100.00
50226;BME280;36113;50.742;6.432;2023-01-29T06:16:13;143893.19;;;-4.64;100.00
50226;BME280;36113;50.742;6.432;2023-01-29T06:18:39;143904.34;;;-4.60;100.00
50226;BME280;36113;50.742;6.432;2023-01-29T06:21:06;143904.34;;;-4.60;100.00
50226;BME280;36113;50.742;6.432;2023-01-29T06:23:33;143930.31;;;-4.49;100.00
50226;BME280;36113;50.742;6.432;2023-01-29T06:26:12;143938.97;;;-4.45;100.00
50226;BME280;36113;50.742;6.432;2023-01-29T06:28:38;143971.13;;;-4.32;100.00
50226;BME280;36113;50.742;6.432;2023-01-29T06:31:05;143958.75;;;-4.37;100.00
50226;BME280;36113;50.742;6.432;2023-01-29T06:33:30;144004.56;;;-4.18;100.00
50226;BME280;36113;50.742;6.432;2023-01-29T06:35:57;144000.84;;;-4.20;100.00
50226;BME280;36113;50.742;6.432;2023-01-29T06:38:23;144002.09;;;-4.19;100.00
50226;BME280;36113;50.742;6.432;2023-01-29T06:40:49;143951.34;;;-4.40;100.00
50226;BME280;36113;50.742;6.432;2023-01-29T06:43:14;143908.03;;;-4.58;100.00
50226;BME280;36113;50.742;6.432;2023-01-29T06:48:13;143849.91;;;-4.82;100.00
50226;BME280;36113;50.742;6.432;2023-01-29T06:50:38;143847.41;;;-4.83;100.00
50226;BME280;36113;50.742;6.432;2023-01-29T06:53:04;143854.84;;;-4.80;100.00
50226;BME280;36113;50.742;6.432;2023-01-29T06:55:29;143868.44;;;-4.75;100.00
50226;BME280;36113;50.742;6.432;2023-01-29T06:57:54;143895.66;;;-4.63;100.00
50226;BME280;36113;50.742;6.432;2023-01-29T07:00:20;143926.59;;;-4.50;100.00
50226;BME280;36113;50.742;6.432;2023-01-29T07:02:48;143953.81;;;-4.39;100.00
50226;BME280;36113;50.742;6.432;2023-01-29T07:05:13;143952.59;;;-4.40;100.00
50226;BME280;36113;50.742;6.432;2023-01-29T07:07:39;143978.56;;;-4.29;100.00
50226;BME280;36113;50.742;6.432;2023-01-29T07:10:04;143976.09;;;-4.30;100.00
50226;BME280;36113;50.742;6.432;2023-01-29T07:12:30;143989.72;;;-4.24;100.00
50226;BME280;36113;50.742;6.432;2023-01-29T07:14:55;143925.34;;;-4.51;100.00
50226;BME280;36113;50.742;6.432;2023-01-29T07:17:21;143924.13;;;-4.52;100.00
50226;BME280;36113;50.742;6.432;2023-01-29T07:19:46;143916.69;;;-4.55;100.00
50226;BME280;36113;50.742;6.432;2023-01-29T07:22:11;143961.25;;;-4.36;100.00
50226;BME280;36113;50.742;6.432;2023-01-29T07:24:37;143974.88;;;-4.30;100.00
50226;BME280;36113;50.742;6.432;2023-01-29T07:27:02;143986.00;;;-4.26;100.00
50226;BME280;36113;50.742;6.432;2023-01-29T07:29:27;144026.88;;;-4.09;100.00
50226;BME280;36113;50.742;6.432;2023-01-29T07:31:53;144055.34;;;-3.97;100.00
50226;BME280;36113;50.742;6.432;2023-01-29T07:34:18;144109.81;;;-3.74;100.00
50226;BME280;36113;50.742;6.432;2023-01-29T07:36:43;144141.97;;;-3.61;100.00
50226;BME280;36113;50.742;6.432;2023-01-29T07:39:09;144124.66;;;-3.68;100.00
50226;BME280;36113;50.742;6.432;2023-01-29T07:41:34;144201.44;;;-3.36;100.00
50226;BME280;36113;50.742;6.432;2023-01-29T07:44:00;144231.16;;;-3.24;100.00
50226;BME280;36113;50.742;6.432;2023-01-29T07:46:25;144253.44;;;-3.15;100.00
50226;BME280;36113;50.742;6.432;2023-01-29T07:48:50;144243.56;;;-3.19;100.00
50226;BME280;36113;50.742;6.432;2023-01-29T07:51:16;144264.63;;;-3.10;100.00
50226;BME280;36113;50.742;6.432;2023-01-29T07:53:42;144270.84;;;-3.08;100.00
50226;BME280;36113;50.742;6.432;2023-01-29T07:56:09;144291.88;;;-2.99;100.00
50226;BME280;36113;50.742;6.432;2023-01-29T07:58:34;144270.84;;;-3.08;100.00
50226;BME280;36113;50.742;6.432;2023-01-29T08:01:04;144330.28;;;-2.83;100.00
50226;BME280;36113;50.742;6.432;2023-01-29T08:03:29;144325.34;;;-2.85;100.00
50226;BME280;36113;50.742;6.432;2023-01-29T08:05:56;144317.91;;;-2.88;100.00
50226;BME280;36113;50.742;6.432;2023-01-29T08:08:22;144315.41;;;-2.89;100.00
50226;BME280;36113;50.742;6.432;2023-01-29T08:10:47;144363.75;;;-2.69;100.00
50226;BME280;36113;50.742;6.432;2023-01-29T08:13:12;144338.97;;;-2.79;100.00
50226;BME280;36113;50.742;6.432;2023-01-29T08:15:41;144407.09;;;-2.51;100.00
50226;BME280;36113;50.742;6.432;2023-01-29T08:18:07;144417.06;;;-2.47;100.00
50226;BME280;36113;50.742;6.432;2023-01-29T08:20:33;144403.38;;;-2.53;100.00
50226;BME280;36113;50.742;6.432;2023-01-29T08:23:00;144409.59;;;-2.50;100.00
50226;BME280;36113;50.742;6.432;2023-01-29T08:25:27;144420.78;;;-2.46;100.00
50226;BME280;36113;50.742;6.432;2023-01-29T08:27:53;144422.00;;;-2.45;100.00
50226;BME280;36113;50.742;6.432;2023-01-29T08:30:19;144429.44;;;-2.42;100.00
50226;BME280;36113;50.742;6.432;2023-01-29T08:32:45;144461.69;;;-2.29;100.00
50226;BME280;36113;50.742;6.432;2023-01-29T08:35:10;144461.69;;;-2.29;100.00
50226;BME280;36113;50.742;6.432;2023-01-29T08:37:35;144481.50;;;-2.20;100.00
50226;BME280;36113;50.742;6.432;2023-01-29T08:40:01;144477.75;;;-2.22;100.00
50226;BME280;36113;50.742;6.432;2023-01-29T08:42:27;144500.13;;;-2.13;100.00
50226;BME280;36113;50.742;6.432;2023-01-29T08:44:52;144512.50;;;-2.08;100.00
50226;BME280;36113;50.742;6.432;2023-01-29T08:47:17;144521.19;;;-2.04;100.00
50226;BME280;36113;50.742;6.432;2023-01-29T08:49:43;144543.50;;;-1.95;100.00
50226;BME280;36113;50.742;6.432;2023-01-29T08:52:08;144523.63;;;-2.03;100.00
50226;BME280;36113;50.742;6.432;2023-01-29T08:54:33;144563.34;;;-1.86;100.00
50226;BME280;36113;50.742;6.432;2023-01-29T08:56:58;144533.59;;;-1.99;100.00
50226;BME280;36113;50.742;6.432;2023-01-29T08:59:24;144593.09;;;-1.74;100.00
50226;BME280;36113;50.742;6.432;2023-01-29T09:01:49;144549.72;;;-1.92;100.00
50226;BME280;36113;50.742;6.432;2023-01-29T09:04:14;144572.03;;;-1.83;100.00
50226;BME280;36113;50.742;6.432;2023-01-29T09:06:40;144611.75;;;-1.66;100.00
50226;BME280;36113;50.742;6.432;2023-01-29T09:09:05;144624.13;;;-1.61;100.00
50226;BME280;36113;50.742;6.432;2023-01-29T09:11:31;144629.09;;;-1.59;100.00
50226;BME280;36113;50.742;6.432;2023-01-29T09:13:56;144586.94;;;-1.77;100.00
50226;BME280;36113;50.742;6.432;2023-01-29T09:16:21;144670.03;;;-1.42;100.00
50226;BME280;36113;50.742;6.432;2023-01-29T09:18:46;144657.63;;;-1.47;100.00
50226;BME280;36113;50.742;6.432;2023-01-29T09:21:12;144704.75;;;-1.28;100.00
50226;BME280;36113;50.742;6.432;2023-01-29T09:23:37;144709.72;;;-1.26;100.00
50226;BME280;36113;50.742;6.432;2023-01-29T09:26:02;144723.41;;;-1.20;100.00
50226;BME280;36113;50.742;6.432;2023-01-29T09:28:28;144737.03;;;-1.15;100.00
50226;BME280;36113;50.742;6.432;2023-01-29T09:30:53;144699.81;;;-1.30;100.00
50226;BME280;36113;50.742;6.432;2023-01-29T09:33:19;144738.25;;;-1.14;100.00
50226;BME280;36113;50.742;6.432;2023-01-29T09:35:44;144737.03;;;-1.15;100.00
50226;BME280;36113;50.742;6.432;2023-01-29T09:38:13;144764.31;;;-1.03;100.00
50226;BME280;36113;50.742;6.432;2023-01-29T09:49:03;144693.59;;;-1.33;100.00
50226;BME280;36113;50.742;6.432;2023-01-29T09:51:36;144713.44;;;-1.24;100.00
50226;BME280;36113;50.742;6.432;2023-01-29T09:54:16;144719.66;;;-1.22;100.00
50226;BME280;36113;50.742;6.432;2023-01-29T09:56:44;144699.81;;;-1.30;100.00
50226;BME280;36113;50.742;6.432;2023-01-29T09:59:12;144781.72;;;-0.96;100.00
50226;BME280;36113;50.742;6.432;2023-01-29T10:01:52;144794.13;;;-0.91;100.00
50226;BME280;36113;50.742;6.432;2023-01-29T10:10:10;144902.16;;;-0.46;100.00
50226;BME280;36113;50.742;6.432;2023-01-29T10:23:29;145054.88;;;0.17;100.00
50226;BME280;36113;50.742;6.432;2023-01-29T10:25:56;145030.03;;;0.07;100.00
50226;BME280;36113;50.742;6.432;2023-01-29T10:28:26;145071.03;;;0.24;100.00
50226;BME280;36113;50.742;6.432;2023-01-29T10:30:58;145087.19;;;0.30;100.00
50226;BME280;36113;50.742;6.432;2023-01-29T10:33:38;145117.00;;;0.43;100.00
50226;BME280;36113;50.742;6.432;2023-01-29T10:36:08;145117.00;;;0.43;100.00
50226;BME280;36113;50.742;6.432;2023-01-29T10:38:46;145102.13;;;0.36;100.00
50226;BME280;36113;50.742;6.432;2023-01-29T10:43:51;145159.25;;;0.60;100.00
50226;BME280;36113;50.742;6.432;2023-01-29T10:47:12;145192.84;;;0.74;100.00
50226;BME280;36113;50.742;6.432;2023-01-29T10:55:08;145186.63;;;0.71;100.00
50226;BME280;36113;50.742;6.432;2023-01-29T10:58:24;145186.63;;;0.71;100.00
50226;BME280;36113;50.742;6.432;2023-01-29T11:00:51;145084.72;;;0.29;100.00
50226;BME280;36113;50.742;6.432;2023-01-29T11:03:27;145166.72;;;0.63;100.00
50226;BME280;36113;50.742;6.432;2023-01-29T11:06:18;145158.03;;;0.60;100.00
50226;BME280;36113;50.742;6.432;2023-01-29T11:11:53;145156.78;;;0.59;100.00
50226;BME280;36113;50.742;6.432;2023-01-29T11:14:23;145165.50;;;0.63;100.00
50226;BME280;36113;50.742;6.432;2023-01-29T11:16:50;145171.69;;;0.65;100.00
50226;BME280;36113;50.742;6.432;2023-01-29T11:19:15;145150.56;;;0.56;100.00
50226;BME280;36113;50.742;6.432;2023-01-29T11:22:14;145168.00;;;0.64;100.00
50226;BME280;36113;50.742;6.432;2023-01-29T11:24:39;145145.59;;;0.54;100.00
50226;BME280;36113;50.742;6.432;2023-01-29T11:27:23;145143.13;;;0.53;100.00
50226;BME280;36113;50.742;6.432;2023-01-29T11:29:51;145107.09;;;0.39;100.00
50226;BME280;36113;50.742;6.432;2023-01-29T11:37:31;145182.88;;;0.70;100.00
50226;BME280;36113;50.742;6.432;2023-01-29T11:39:57;145227.63;;;0.88;100.00
50226;BME280;36113;50.742;6.432;2023-01-29T11:42:22;145272.41;;;1.07;100.00
50226;BME280;36113;50.742;6.432;2023-01-29T11:44:48;145238.84;;;0.93;100.00
50226;BME280;36113;50.742;6.432;2023-01-29T11:47:22;145284.84;;;1.12;100.00
50226;BME280;36113;50.742;6.432;2023-01-29T11:49:58;145293.53;;;1.16;100.00
50226;BME280;36113;50.742;6.432;2023-01-29T11:52:34;145258.69;;;1.01;100.00
50226;BME280;36113;50.742;6.432;2023-01-29T11:55:03;145278.59;;;1.09;100.00
50226;BME280;36113;50.742;6.432;2023-01-29T11:57:38;145309.72;;;1.22;100.00
50226;BME280;36113;50.742;6.432;2023-01-29T12:00:06;145344.50;;;1.37;100.00
50226;BME280;36113;50.742;6.432;2023-01-29T12:02:35;145286.06;;;1.12;100.00
50226;BME280;36113;50.742;6.432;2023-01-29T12:05:23;145328.34;;;1.30;100.00
50226;BME280;36113;50.742;6.432;2023-01-29T12:07:50;145335.81;;;1.33;100.00
50226;BME280;36113;50.742;6.432;2023-01-29T12:10:35;145369.38;;;1.47;100.00
50226;BME280;36113;50.742;6.432;2023-01-29T12:13:26;145355.72;;;1.41;100.00
50226;BME280;36113;50.742;6.432;2023-01-29T12:16:05;145303.47;;;1.20;100.00
50226;BME280;36113;50.742;6.432;2023-01-29T12:18:58;145338.25;;;1.34;100.00
50226;BME280;36113;50.742;6.432;2023-01-29T12:21:33;145350.69;;;1.39;100.00
50226;BME280;36113;50.742;6.432;2023-01-29T12:24:30;145380.59;;;1.52;100.00
50226;BME280;36113;50.742;6.432;2023-01-29T12:29:50;145325.88;;;1.29;100.00
50226;BME280;36113;50.742;6.432;2023-01-29T12:32:38;145349.47;;;1.39;100.00
50226;BME280;36113;50.742;6.432;2023-01-29T12:35:29;145384.31;;;1.53;100.00
50226;BME280;36113;50.742;6.432;2023-01-29T12:40:39;145356.94;;;1.42;100.00
50226;BME280;36113;50.742;6.432;2023-01-29T12:43:16;145374.34;;;1.49;100.00
50226;BME280;36113;50.742;6.432;2023-01-29T12:45:44;145363.13;;;1.44;100.00
50226;BME280;36113;50.742;6.432;2023-01-29T12:48:13;145391.75;;;1.56;100.00
50226;BME280;36113;50.742;6.432;2023-01-29T12:50:44;145381.81;;;1.52;100.00
50226;BME280;36113;50.742;6.432;2023-01-29T12:53:22;145368.16;;;1.46;100.00
50226;BME280;36113;50.742;6.432;2023-01-29T12:55:52;145406.69;;;1.62;100.00
50226;BME280;36113;50.742;6.432;2023-01-29T12:58:28;145402.97;;;1.61;100.00
50226;BME280;36113;50.742;6.432;2023-01-29T13:01:00;145384.31;;;1.53;100.00
50226;BME280;36113;50.742;6.432;2023-01-29T13:03:50;145395.50;;;1.58;100.00
50226;BME280;36113;50.742;6.432;2023-01-29T13:06:25;145358.19;;;1.42;100.00
50226;BME280;36113;50.742;6.432;2023-01-29T13:09:00;145381.81;;;1.52;100.00
50226;BME280;36113;50.742;6.432;2023-01-29T13:11:36;145349.47;;;1.39;100.00
50226;BME280;36113;50.742;6.432;2023-01-29T13:14:26;145414.16;;;1.65;100.00
50226;BME280;36113;50.742;6.432;2023-01-29T13:17:09;145421.63;;;1.68;100.00
50226;BME280;36113;50.742;6.432;2023-01-29T13:19:49;145394.25;;;1.57;100.00
50226;BME280;36113;50.742;6.432;2023-01-29T13:22:22;145398.00;;;1.59;100.00
50226;BME280;36113;50.742;6.432;2023-01-29T13:24:49;145415.41;;;1.66;100.00
50226;BME280;36113;50.742;6.432;2023-01-29T13:27:21;145400.47;;;1.60;100.00
50226;BME280;36113;50.742;6.432;2023-01-29T13:29:48;145406.69;;;1.62;100.00
50226;BME280;36113;50.742;6.432;2023-01-29T13:32:19;145375.56;;;1.49;100.00
50226;BME280;36113;50.742;6.432;2023-01-29T13:34:47;145401.72;;;1.60;100.00
50226;BME280;36113;50.742;6.432;2023-01-29T13:38:01;145416.63;;;1.66;100.00
50226;BME280;36113;50.742;6.432;2023-01-29T13:40:19;145370.63;;;1.47;100.00
50226;BME280;36113;50.742;6.432;2023-01-29T13:42:47;145379.31;;;1.51;100.00
50226;BME280;36113;50.742;6.432;2023-01-29T13:47:43;145421.63;;;1.68;100.00
50226;BME280;36113;50.742;6.432;2023-01-29T13:52:40;145399.22;;;1.59;100.00
50226;BME280;36113;50.742;6.432;2023-01-29T14:08:00;145401.72;;;1.60;100.00
50226;BME280;36113;50.742;6.432;2023-01-29T14:10:30;145402.97;;;1.61;100.00
50226;BME280;36113;50.742;6.432;2023-01-29T14:13:25;145374.34;;;1.49;100.00
50226;BME280;36113;50.742;6.432;2023-01-29T14:18:26;145288.56;;;1.14;100.00
50226;BME280;36113;50.742;6.432;2023-01-29T14:20:55;145289.81;;;1.14;100.00
50226;BME280;36113;50.742;6.432;2023-01-29T14:23:41;145315.91;;;1.25;100.00
50226;BME280;36113;50.742;6.432;2023-01-29T14:28:52;145301.00;;;1.19;100.00
50226;BME280;36113;50.742;6.432;2023-01-29T14:31:40;145272.41;;;1.07;100.00
50226;BME280;36113;50.742;6.432;2023-01-29T14:34:29;145271.13;;;1.06;100.00
50226;BME280;36113;50.742;6.432;2023-01-29T14:37:00;145291.03;;;1.15;100.00
50226;BME280;36113;50.742;6.432;2023-01-29T14:39:36;145284.84;;;1.12;100.00
50226;BME280;36113;50.742;6.432;2023-01-29T14:42:17;145282.34;;;1.11;100.00
50226;BME280;36113;50.742;6.432;2023-01-29T14:44:46;145299.72;;;1.18;100.00
50226;BME280;36113;50.742;6.432;2023-01-29T14:53:57;145258.69;;;1.01;100.00
50226;BME280;36113;50.742;6.432;2023-01-29T14:56:30;145248.78;;;0.97;100.00
50226;BME280;36113;50.742;6.432;2023-01-29T14:59:12;145258.69;;;1.01;100.00